createdAt,value
2017-09-27T00:00:28.670Z,5.6
2017-09-27T00:01:47.346Z,5.6
2017-09-27T00:03:06.009Z,5.5
2017-09-27T00:04:24.705Z,5.5
2017-09-27T00:05:43.368Z,5.5
2017-09-27T00:07:02.056Z,5.4
2017-09-27T00:08:20.737Z,5.3
2017-09-27T00:09:39.439Z,5.3
2017-09-27T00:10:58.140Z,5.3
2017-09-27T00:12:16.786Z,5.3
2017-09-27T00:13:35.449Z,5.2
2017-09-27T00:14:54.126Z,5.2
2017-09-27T00:16:12.778Z,5.2
2017-09-27T00:17:31.438Z,5.1
2017-09-27T00:18:50.128Z,5.1
2017-09-27T00:20:08.771Z,5.1
2017-09-27T00:21:27.412Z,5.1
2017-09-27T00:22:46.116Z,5.1
2017-09-27T00:24:04.781Z,5.1
2017-09-27T00:25:23.482Z,5.1
2017-09-27T00:26:42.127Z,5.2
2017-09-27T00:28:00.774Z,5.1
2017-09-27T00:29:19.454Z,5.1
2017-09-27T00:30:38.129Z,5.1
2017-09-27T00:31:56.828Z,5.1
2017-09-27T00:33:15.468Z,5.1
2017-09-27T00:34:34.142Z,5.1
2017-09-27T00:35:52.841Z,5.1
2017-09-27T00:37:11.515Z,5.1
2017-09-27T00:38:30.157Z,5
2017-09-27T00:39:48.816Z,5
2017-09-27T00:41:07.481Z,5
2017-09-27T00:42:26.167Z,4.9
2017-09-27T00:43:44.816Z,4.9
2017-09-27T00:45:03.459Z,4.9
2017-09-27T00:46:22.104Z,5
2017-09-27T00:47:40.746Z,5
2017-09-27T00:48:59.394Z,5
2017-09-27T00:50:18.073Z,5
2017-09-27T00:51:36.766Z,4.9
2017-09-27T00:52:55.465Z,4.9
2017-09-27T00:54:14.116Z,4.9
2017-09-27T00:55:32.785Z,4.9
2017-09-27T00:56:51.491Z,4.9
2017-09-27T00:58:10.135Z,4.9
2017-09-27T00:59:28.789Z,4.9
2017-09-27T01:00:47.451Z,4.8
2017-09-27T01:02:06.094Z,4.8
2017-09-27T01:03:24.793Z,4.8
2017-09-27T01:04:43.435Z,4.8
2017-09-27T01:06:02.094Z,4.8
2017-09-27T01:07:20.736Z,4.8
2017-09-27T01:08:39.383Z,4.7
2017-09-27T01:09:58.094Z,4.6
2017-09-27T01:11:16.795Z,4.6
2017-09-27T01:12:35.452Z,4.6
2017-09-27T01:13:54.098Z,4.6
2017-09-27T01:15:12.810Z,4.6
2017-09-27T01:16:31.526Z,4.6
2017-09-27T01:17:50.173Z,4.6
2017-09-27T01:19:08.816Z,4.7
2017-09-27T01:20:27.464Z,4.7
2017-09-27T01:21:46.121Z,4.7
2017-09-27T01:23:04.835Z,4.7
2017-09-27T01:24:23.480Z,4.7
2017-09-27T01:25:42.127Z,4.7
2017-09-27T01:27:00.842Z,4.8
2017-09-27T01:28:19.504Z,4.9
2017-09-27T01:29:38.178Z,4.9
2017-09-27T01:30:56.823Z,4.9
2017-09-27T01:32:15.475Z,4.9
2017-09-27T01:33:34.115Z,4.8
2017-09-27T01:34:52.772Z,4.8
2017-09-27T01:36:11.417Z,4.8
2017-09-27T01:37:30.075Z,4.7
2017-09-27T01:38:48.716Z,4.8
2017-09-27T01:40:07.404Z,4.8
2017-09-27T01:41:26.050Z,4.7
2017-09-27T01:42:44.705Z,4.7
2017-09-27T01:44:03.367Z,4.7
2017-09-27T01:45:22.006Z,4.7
2017-09-27T01:46:40.645Z,4.8
2017-09-27T01:47:59.300Z,4.8
2017-09-27T01:49:17.997Z,4.9
2017-09-27T01:50:36.641Z,4.9
2017-09-27T01:51:55.343Z,5
2017-09-27T01:53:14.064Z,5
2017-09-27T01:54:32.737Z,5
2017-09-27T01:55:51.411Z,4.9
2017-09-27T01:57:10.118Z,4.9
2017-09-27T01:58:28.814Z,4.8
2017-09-27T01:59:47.487Z,4.8
2017-09-27T02:01:06.169Z,4.8
2017-09-27T02:02:24.822Z,4.8
2017-09-27T02:03:43.487Z,4.8
2017-09-27T02:05:02.125Z,4.8
2017-09-27T02:06:20.822Z,4.8
2017-09-27T02:07:39.462Z,4.8
2017-09-27T02:08:58.112Z,4.7
2017-09-27T02:10:16.809Z,4.7
2017-09-27T02:11:35.453Z,4.7
2017-09-27T02:12:54.124Z,4.7
2017-09-27T02:14:12.808Z,4.7
2017-09-27T02:15:31.465Z,4.7
2017-09-27T02:16:50.107Z,4.7
2017-09-27T02:18:08.748Z,4.7
2017-09-27T02:19:27.411Z,4.7
2017-09-27T02:20:46.085Z,4.7
2017-09-27T02:22:04.729Z,4.7
2017-09-27T02:23:23.368Z,4.7
2017-09-27T02:24:42.039Z,4.7
2017-09-27T02:26:00.677Z,4.7
2017-09-27T02:27:19.322Z,4.6
2017-09-27T02:28:38.015Z,4.6
2017-09-27T02:29:56.665Z,4.6
2017-09-27T02:31:15.357Z,4.6
2017-09-27T02:32:34.001Z,4.6
2017-09-27T02:33:52.674Z,4.6
2017-09-27T02:35:11.357Z,4.6
2017-09-27T02:36:30.012Z,4.6
2017-09-27T02:37:48.665Z,4.6
2017-09-27T02:39:07.314Z,4.6
2017-09-27T02:40:26.003Z,4.5
2017-09-27T02:41:44.679Z,4.5
2017-09-27T02:43:03.330Z,4.4
2017-09-27T02:44:21.967Z,4.4
2017-09-27T02:45:40.655Z,4.4
2017-09-27T02:46:59.354Z,4.4
2017-09-27T02:48:18.045Z,4.5
2017-09-27T02:49:36.720Z,4.5
2017-09-27T02:50:55.394Z,4.5
2017-09-27T02:52:14.041Z,4.5
2017-09-27T02:53:32.735Z,4.6
2017-09-27T02:54:51.378Z,4.6
2017-09-27T02:56:10.076Z,4.6
2017-09-27T02:57:28.717Z,4.6
2017-09-27T02:58:47.375Z,4.5
2017-09-27T03:00:06.016Z,4.6
2017-09-27T03:01:24.680Z,4.6
2017-09-27T03:02:43.332Z,4.6
2017-09-27T03:04:01.971Z,4.5
2017-09-27T03:05:20.616Z,4.6
2017-09-27T03:06:39.315Z,4.6
2017-09-27T03:07:57.960Z,4.6
2017-09-27T03:09:16.606Z,4.6
2017-09-27T03:10:35.251Z,4.6
2017-09-27T03:11:53.955Z,4.6
2017-09-27T03:13:12.649Z,4.6
2017-09-27T03:14:31.292Z,4.6
2017-09-27T03:15:49.961Z,4.5
2017-09-27T03:17:08.649Z,4.6
2017-09-27T03:18:27.329Z,4.6
2017-09-27T03:19:45.998Z,4.6
2017-09-27T03:21:04.636Z,4.6
2017-09-27T03:22:23.295Z,4.6
2017-09-27T03:23:41.982Z,4.6
2017-09-27T03:25:00.628Z,4.6
2017-09-27T03:26:19.264Z,4.7
2017-09-27T03:27:37.970Z,4.7
2017-09-27T03:28:56.613Z,4.8
2017-09-27T03:30:15.261Z,4.8
2017-09-27T03:31:33.917Z,4.8
2017-09-27T03:32:52.582Z,4.8
2017-09-27T03:34:11.230Z,4.8
2017-09-27T03:35:29.874Z,4.8
2017-09-27T03:36:48.516Z,4.8
2017-09-27T03:38:07.180Z,4.8
2017-09-27T03:39:25.827Z,4.8
2017-09-27T03:40:44.471Z,4.9
2017-09-27T03:42:03.115Z,4.9
2017-09-27T03:43:21.810Z,4.8
2017-09-27T03:44:40.453Z,4.8
2017-09-27T03:45:59.105Z,4.7
2017-09-27T03:47:17.748Z,4.7
2017-09-27T03:48:36.409Z,4.8
2017-09-27T03:49:55.055Z,4.8
2017-09-27T03:51:13.697Z,4.8
2017-09-27T03:52:32.368Z,4.8
2017-09-27T03:53:51.025Z,4.8
2017-09-27T03:55:09.672Z,4.8
2017-09-27T03:56:28.312Z,4.8
2017-09-27T03:57:46.955Z,4.8
2017-09-27T03:59:05.682Z,4.8
2017-09-27T04:00:24.319Z,4.9
2017-09-27T04:01:42.962Z,5
2017-09-27T04:03:01.656Z,5
2017-09-27T04:04:20.366Z,5
2017-09-27T04:05:39.019Z,5
2017-09-27T04:06:57.715Z,4.9
2017-09-27T04:08:16.355Z,4.8
2017-09-27T04:09:35.011Z,4.8
2017-09-27T04:10:53.685Z,4.7
2017-09-27T04:12:12.390Z,4.7
2017-09-27T04:13:31.068Z,4.8
2017-09-27T04:14:49.723Z,4.8
2017-09-27T04:16:08.417Z,4.9
2017-09-27T04:17:27.087Z,4.9
2017-09-27T04:18:45.735Z,4.9
2017-09-27T04:20:04.417Z,4.9
2017-09-27T04:21:23.061Z,4.9
2017-09-27T04:22:41.703Z,4.8
2017-09-27T04:24:00.393Z,4.8
2017-09-27T04:25:19.070Z,4.7
2017-09-27T04:26:37.719Z,4.7
2017-09-27T04:27:56.369Z,4.7
2017-09-27T04:29:15.053Z,4.6
2017-09-27T04:30:33.755Z,4.6
2017-09-27T04:31:52.425Z,4.6
2017-09-27T04:33:11.066Z,4.6
2017-09-27T04:34:29.727Z,4.6
2017-09-27T04:35:48.426Z,4.7
2017-09-27T04:37:07.117Z,4.7
2017-09-27T04:38:25.782Z,4.7
2017-09-27T04:39:44.423Z,4.7
2017-09-27T04:41:03.086Z,4.7
2017-09-27T04:42:21.733Z,4.7
2017-09-27T04:43:40.431Z,4.8
2017-09-27T04:44:59.078Z,4.8
2017-09-27T04:46:17.724Z,4.8
2017-09-27T04:47:36.373Z,4.9
2017-09-27T04:48:55.021Z,4.9
2017-09-27T04:50:13.669Z,4.9
2017-09-27T04:51:32.324Z,5
2017-09-27T04:52:50.975Z,5
2017-09-27T04:54:09.629Z,5.1
2017-09-27T04:55:28.264Z,5.1
2017-09-27T04:56:46.948Z,5.2
2017-09-27T04:58:05.592Z,5.2
2017-09-27T04:59:24.266Z,5.2
2017-09-27T05:00:42.907Z,5.2
2017-09-27T05:02:01.615Z,5.2
2017-09-27T05:03:20.302Z,5.2
2017-09-27T05:04:38.952Z,5.3
2017-09-27T05:05:57.611Z,5.3
2017-09-27T05:07:16.277Z,5.3
2017-09-27T05:08:34.949Z,5.3
2017-09-27T05:09:53.585Z,5.4
2017-09-27T05:11:12.232Z,5.4
2017-09-27T05:12:30.876Z,5.4
2017-09-27T05:13:49.555Z,5.4
2017-09-27T05:15:08.222Z,5.5
2017-09-27T05:16:26.899Z,5.5
2017-09-27T05:17:45.548Z,5.5
2017-09-27T05:19:04.187Z,5.5
2017-09-27T05:20:22.836Z,5.5
2017-09-27T05:21:41.491Z,5.5
2017-09-27T05:23:00.151Z,5.5
2017-09-27T05:24:18.794Z,5.5
2017-09-27T05:25:37.436Z,5.4
2017-09-27T05:26:56.091Z,5.3
2017-09-27T05:28:14.756Z,5.1
2017-09-27T05:29:33.396Z,5.1
2017-09-27T05:30:52.055Z,5
2017-09-27T05:32:10.693Z,5
2017-09-27T05:33:29.342Z,5
2017-09-27T05:34:47.985Z,5
2017-09-27T05:36:06.637Z,5.1
2017-09-27T05:37:25.309Z,5.1
2017-09-27T05:38:43.958Z,5.1
2017-09-27T05:40:02.604Z,5.1
2017-09-27T05:41:21.245Z,5.1
2017-09-27T05:42:39.933Z,5.2
2017-09-27T05:43:58.576Z,5.2
2017-09-27T05:45:17.214Z,5.3
2017-09-27T05:46:35.865Z,5.4
2017-09-27T05:47:54.509Z,5.5
2017-09-27T05:49:13.167Z,5.5
2017-09-27T05:50:31.835Z,5.7
2017-09-27T05:51:50.517Z,5.8
2017-09-27T05:53:09.159Z,5.9
2017-09-27T05:54:27.819Z,6
2017-09-27T05:55:46.515Z,6
2017-09-27T05:57:05.200Z,6.1
2017-09-27T05:58:23.841Z,6.2
2017-09-27T05:59:42.493Z,6.3
2017-09-27T06:01:01.138Z,6.4
2017-09-27T06:02:19.785Z,6.5
2017-09-27T06:03:38.428Z,6.7
2017-09-27T06:04:57.099Z,7
2017-09-27T06:06:15.749Z,7.2
2017-09-27T06:07:34.393Z,7.3
2017-09-27T06:08:53.069Z,7.5
2017-09-27T06:10:11.795Z,7.6
2017-09-27T06:11:30.464Z,7.8
2017-09-27T06:12:49.102Z,7.8
2017-09-27T06:14:07.763Z,7.8
2017-09-27T06:15:26.428Z,7.9
2017-09-27T06:16:45.106Z,8
2017-09-27T06:18:03.747Z,8.1
2017-09-27T06:19:22.388Z,8.1
2017-09-27T06:20:41.054Z,8.3
2017-09-27T06:21:59.695Z,8.3
2017-09-27T06:23:18.352Z,8.3
2017-09-27T06:24:37.005Z,8.3
2017-09-27T06:25:55.710Z,8.3
2017-09-27T06:27:14.359Z,8.3
2017-09-27T06:28:33.031Z,8.3
2017-09-27T06:29:51.711Z,8.4
2017-09-27T06:31:10.362Z,8.4
2017-09-27T06:32:29.016Z,8.5
2017-09-27T06:33:47.667Z,8.6
2017-09-27T06:35:06.360Z,8.7
2017-09-27T06:36:25.102Z,8.9
2017-09-27T06:37:43.759Z,9
2017-09-27T06:39:02.488Z,9.1
2017-09-27T06:40:21.137Z,9.3
2017-09-27T06:41:39.804Z,9.4
2017-09-27T06:42:58.447Z,9.6
2017-09-27T06:44:17.089Z,9.7
2017-09-27T06:45:35.736Z,9.9
2017-09-27T06:46:54.398Z,10.1
2017-09-27T06:48:13.104Z,10.2
2017-09-27T06:49:31.795Z,10.3
2017-09-27T06:50:50.458Z,10.2
2017-09-27T06:52:09.128Z,10.2
2017-09-27T06:53:27.794Z,10.2
2017-09-27T06:54:46.489Z,10.3
2017-09-27T06:56:05.202Z,10.2
2017-09-27T06:57:23.896Z,10.3
2017-09-27T06:58:42.562Z,10.3
2017-09-27T07:00:01.267Z,10.3
2017-09-27T07:01:19.972Z,10.4
2017-09-27T07:02:38.699Z,10.5
2017-09-27T07:03:57.362Z,10.7
2017-09-27T07:05:16.032Z,10.9
2017-09-27T07:06:34.692Z,11
2017-09-27T07:07:53.391Z,11.1
2017-09-27T07:09:12.058Z,11.3
2017-09-27T07:10:30.721Z,11.4
2017-09-27T07:11:49.381Z,11.4
2017-09-27T07:13:08.051Z,11.5
2017-09-27T07:14:26.746Z,11.5
2017-09-27T07:15:45.406Z,11.5
2017-09-27T07:17:04.079Z,11.4
2017-09-27T07:18:22.765Z,11.5
2017-09-27T07:19:41.503Z,11.5
2017-09-27T07:21:00.213Z,11.5
2017-09-27T07:22:18.922Z,11.5
2017-09-27T07:23:37.585Z,11.6
2017-09-27T07:24:56.263Z,11.6
2017-09-27T07:26:14.924Z,11.5
2017-09-27T07:27:33.634Z,11.3
2017-09-27T07:28:52.312Z,11.3
2017-09-27T07:30:11.000Z,11.2
2017-09-27T07:31:29.718Z,11.2
2017-09-27T07:32:48.380Z,11.2
2017-09-27T07:34:07.098Z,11.1
2017-09-27T07:35:25.762Z,11
2017-09-27T07:36:44.420Z,11
2017-09-27T07:38:03.077Z,10.9
2017-09-27T07:39:21.796Z,11
2017-09-27T07:40:40.480Z,11.1
2017-09-27T07:41:59.162Z,11.1
2017-09-27T07:43:17.830Z,11.3
2017-09-27T07:44:36.521Z,11.5
2017-09-27T07:45:55.196Z,11.6
2017-09-27T07:47:13.897Z,11.8
2017-09-27T07:48:32.555Z,11.8
2017-09-27T07:49:51.250Z,11.8
2017-09-27T07:51:09.918Z,11.9
2017-09-27T07:52:28.634Z,11.8
2017-09-27T07:53:47.317Z,11.8
2017-09-27T07:55:05.990Z,11.8
2017-09-27T07:56:24.699Z,11.9
2017-09-27T07:57:43.406Z,11.9
2017-09-27T07:59:02.107Z,11.9
2017-09-27T08:00:20.773Z,12
2017-09-27T08:01:39.439Z,12.2
2017-09-27T08:02:58.102Z,12.3
2017-09-27T08:04:16.766Z,12.4
2017-09-27T08:05:35.452Z,12.4
2017-09-27T08:06:54.160Z,12.5
2017-09-27T08:08:12.828Z,12.6
2017-09-27T08:09:31.538Z,12.7
2017-09-27T08:10:50.205Z,12.9
2017-09-27T08:12:08.879Z,13
2017-09-27T08:13:27.597Z,13
2017-09-27T08:14:46.288Z,13.1
2017-09-27T08:16:04.961Z,13.2
2017-09-27T08:17:23.615Z,13.3
2017-09-27T08:18:42.317Z,13.3
2017-09-27T08:20:01.029Z,13.2
2017-09-27T08:21:19.750Z,13.1
2017-09-27T08:22:38.411Z,13.2
2017-09-27T08:23:57.067Z,13.3
2017-09-27T08:25:15.751Z,13.5
2017-09-27T08:26:34.451Z,13.6
2017-09-27T08:27:53.137Z,13.8
2017-09-27T08:29:11.805Z,13.9
2017-09-27T08:30:30.493Z,14
2017-09-27T08:31:49.174Z,14.2
2017-09-27T08:33:07.830Z,14.3
2017-09-27T08:34:26.499Z,14.3
2017-09-27T08:35:45.174Z,14.5
2017-09-27T08:37:03.861Z,14.5
2017-09-27T08:38:22.518Z,14.5
2017-09-27T08:39:41.257Z,14.5
2017-09-27T08:40:59.918Z,14.4
2017-09-27T08:42:18.595Z,14.5
2017-09-27T08:43:37.263Z,14.4
2017-09-27T08:44:55.950Z,14.4
2017-09-27T08:46:14.670Z,14.5
2017-09-27T08:47:33.404Z,14.6
2017-09-27T08:48:52.068Z,14.5
2017-09-27T08:50:10.728Z,14.5
2017-09-27T08:51:29.471Z,14.5
2017-09-27T08:52:48.142Z,14.6
2017-09-27T08:54:06.801Z,14.6
2017-09-27T08:55:25.460Z,14.7
2017-09-27T08:56:44.165Z,14.8
2017-09-27T08:58:02.844Z,14.8
2017-09-27T08:59:21.510Z,14.8
2017-09-27T09:00:40.167Z,14.9
2017-09-27T09:01:58.823Z,14.9
2017-09-27T09:03:17.538Z,14.9
2017-09-27T09:04:36.247Z,15
2017-09-27T09:05:54.960Z,15.1
2017-09-27T09:07:13.620Z,15.1
2017-09-27T09:08:32.350Z,15.1
2017-09-27T09:09:51.070Z,15.2
2017-09-27T09:11:09.727Z,15.3
2017-09-27T09:12:28.388Z,15.2
2017-09-27T09:13:47.055Z,15.2
2017-09-27T09:15:05.747Z,15.2
2017-09-27T09:16:24.413Z,15.1
2017-09-27T09:17:43.068Z,15
2017-09-27T09:19:01.803Z,15.1
2017-09-27T09:20:20.456Z,15.3
2017-09-27T09:21:39.155Z,15.1
2017-09-27T09:22:57.811Z,15.2
2017-09-27T09:24:16.526Z,15.2
2017-09-27T09:25:35.181Z,15.1
2017-09-27T09:26:53.834Z,15
2017-09-27T09:28:12.501Z,15.1
2017-09-27T09:29:31.228Z,15.3
2017-09-27T09:30:49.887Z,15.3
2017-09-27T09:32:08.605Z,15.4
2017-09-27T09:33:27.264Z,15.4
2017-09-27T09:34:45.958Z,15.5
2017-09-27T09:36:04.620Z,15.5
2017-09-27T09:37:23.278Z,15.7
2017-09-27T09:38:41.992Z,15.8
2017-09-27T09:40:00.686Z,15.9
2017-09-27T09:41:19.342Z,16
2017-09-27T09:42:38.005Z,16.1
2017-09-27T09:43:56.669Z,16.4
2017-09-27T09:45:15.336Z,16.5
2017-09-27T09:46:33.997Z,16.7
2017-09-27T09:47:52.664Z,16.9
2017-09-27T09:49:11.328Z,17.1
2017-09-27T09:50:30.028Z,17.1
2017-09-27T09:51:48.732Z,17.4
2017-09-27T09:53:07.395Z,17.6
2017-09-27T09:54:26.065Z,17.8
2017-09-27T09:55:44.742Z,18.1
2017-09-27T09:57:03.399Z,18.2
2017-09-27T09:58:22.071Z,18.2
2017-09-27T09:59:40.746Z,18.4
2017-09-27T10:00:59.476Z,18.4
2017-09-27T10:02:18.143Z,18.3
2017-09-27T10:03:36.802Z,18.3
2017-09-27T10:04:55.476Z,18.4
2017-09-27T10:06:14.172Z,18.7
2017-09-27T10:07:32.876Z,19.3
2017-09-27T10:08:51.578Z,19.8
2017-09-27T10:10:10.241Z,20.2
2017-09-27T10:11:28.916Z,20.6
2017-09-27T10:12:47.570Z,20.8
2017-09-27T10:14:06.235Z,20.7
2017-09-27T10:15:24.894Z,20.7
2017-09-27T10:16:43.567Z,20
2017-09-27T10:18:02.228Z,19.6
2017-09-27T10:19:20.888Z,19.2
2017-09-27T10:20:39.550Z,19
2017-09-27T10:21:58.226Z,19.8
2017-09-27T10:23:16.896Z,20.1
2017-09-27T10:24:35.586Z,20
2017-09-27T10:25:54.245Z,20
2017-09-27T10:27:12.919Z,19.6
2017-09-27T10:28:31.577Z,19.6
2017-09-27T10:29:50.235Z,19.3
2017-09-27T10:31:08.896Z,19.1
2017-09-27T10:32:27.566Z,18.7
2017-09-27T10:33:46.275Z,18.7
2017-09-27T10:35:04.943Z,18.5
2017-09-27T10:36:23.598Z,18.1
2017-09-27T10:37:42.318Z,18
2017-09-27T10:39:00.985Z,18.2
2017-09-27T10:40:19.653Z,18.3
2017-09-27T10:41:38.333Z,18.5
2017-09-27T10:42:57.009Z,18.9
2017-09-27T10:44:15.721Z,19.1
2017-09-27T10:45:34.375Z,19
2017-09-27T10:46:53.031Z,18.9
2017-09-27T10:48:11.744Z,18.8
2017-09-27T10:49:30.432Z,18.6
2017-09-27T10:50:49.085Z,18.4
2017-09-27T10:52:07.788Z,18.3
2017-09-27T10:53:26.509Z,18.1
2017-09-27T10:54:45.165Z,18.2
2017-09-27T10:56:03.882Z,18.2
2017-09-27T10:57:22.539Z,18.4
2017-09-27T10:58:41.261Z,18.5
2017-09-27T10:59:59.926Z,18.8
2017-09-27T11:01:18.602Z,19.2
2017-09-27T11:02:37.268Z,19.4
2017-09-27T11:03:55.977Z,19.6
2017-09-27T11:05:14.641Z,19.8
2017-09-27T11:06:33.294Z,19.9
2017-09-27T11:07:51.980Z,19.8
2017-09-27T11:09:10.671Z,19.7
2017-09-27T11:10:29.354Z,19.5
2017-09-27T11:11:48.034Z,19.3
2017-09-27T11:13:06.698Z,19.2
2017-09-27T11:14:25.397Z,19.1
2017-09-27T11:15:44.067Z,19.1
2017-09-27T11:17:02.781Z,19.1
2017-09-27T11:18:21.492Z,19
2017-09-27T11:19:40.167Z,19
2017-09-27T11:20:58.908Z,18.9
2017-09-27T11:22:17.587Z,18.9
2017-09-27T11:23:36.240Z,18.9
2017-09-27T11:24:54.918Z,18.9
2017-09-27T11:26:13.580Z,18.9
2017-09-27T11:27:32.242Z,19.1
2017-09-27T11:28:50.915Z,19.2
2017-09-27T11:30:09.627Z,19.2
2017-09-27T11:31:28.308Z,19.1
2017-09-27T11:32:46.971Z,18.8
2017-09-27T11:34:05.630Z,18.9
2017-09-27T11:35:24.318Z,18.8
2017-09-27T11:36:42.976Z,18.8
2017-09-27T11:38:01.673Z,18.5
2017-09-27T11:39:20.422Z,18.5
2017-09-27T11:40:39.097Z,18.5
2017-09-27T11:41:57.785Z,18.5
2017-09-27T11:43:16.444Z,18.5
2017-09-27T11:44:35.109Z,18.6
2017-09-27T11:45:53.849Z,18.8
2017-09-27T11:47:12.534Z,19.1
2017-09-27T11:48:31.197Z,19.7
2017-09-27T11:49:49.864Z,20.6
2017-09-27T11:51:08.600Z,21.1
2017-09-27T11:52:27.260Z,21.4
2017-09-27T11:53:46.000Z,21.8
2017-09-27T11:55:04.662Z,22
2017-09-27T11:56:23.340Z,22.2
2017-09-27T11:57:42.030Z,21.8
2017-09-27T11:59:00.691Z,21.5
2017-09-27T12:00:19.355Z,21.3
2017-09-27T12:01:38.025Z,21.2
2017-09-27T12:02:56.748Z,21.3
2017-09-27T12:04:15.426Z,21.5
2017-09-27T12:05:34.083Z,21.5
2017-09-27T12:06:52.761Z,21.9
2017-09-27T12:08:11.422Z,21.9
2017-09-27T12:09:30.101Z,21.9
2017-09-27T12:10:48.773Z,21.8
2017-09-27T12:12:07.450Z,21.6
2017-09-27T12:13:26.162Z,21.4
2017-09-27T12:14:44.821Z,21.5
2017-09-27T12:16:03.537Z,21.3
2017-09-27T12:17:22.216Z,20.6
2017-09-27T12:18:40.880Z,20.3
2017-09-27T12:19:59.584Z,20.1
2017-09-27T12:21:18.289Z,20
2017-09-27T12:22:36.967Z,20
2017-09-27T12:23:55.626Z,19.9
2017-09-27T12:25:14.289Z,19.7
2017-09-27T12:26:32.956Z,19.7
2017-09-27T12:27:51.626Z,19.5
2017-09-27T12:29:10.307Z,19.4
2017-09-27T12:30:28.969Z,19.3
2017-09-27T12:31:47.628Z,19.1
2017-09-27T12:33:06.292Z,19.1
2017-09-27T12:34:24.976Z,19.1
2017-09-27T12:35:43.637Z,19.2
2017-09-27T12:37:02.290Z,19.5
2017-09-27T12:38:20.972Z,22.6
2017-09-27T12:39:39.687Z,27.7
2017-09-27T12:40:58.347Z,30.4
2017-09-27T12:42:17.008Z,31.3
2017-09-27T12:43:35.688Z,31.2
2017-09-27T12:44:54.366Z,28.8
2017-09-27T12:46:13.045Z,26.4
2017-09-27T12:47:31.739Z,25
2017-09-27T12:48:50.412Z,23.9
2017-09-27T12:50:09.112Z,22.8
2017-09-27T12:51:27.773Z,22.1
2017-09-27T12:52:46.471Z,21.7
2017-09-27T12:54:05.165Z,21.7
2017-09-27T12:55:23.819Z,21.5
2017-09-27T12:56:42.507Z,21.2
2017-09-27T12:58:01.170Z,21.2
2017-09-27T12:59:19.879Z,20.8
2017-09-27T13:00:38.551Z,21
2017-09-27T13:01:57.261Z,21.1
2017-09-27T13:03:15.917Z,21.2
2017-09-27T13:04:34.590Z,21.3
2017-09-27T13:05:53.305Z,21.7
2017-09-27T13:07:11.976Z,21.9
2017-09-27T13:08:30.641Z,22.2
2017-09-27T13:09:49.320Z,22.3
2017-09-27T13:11:07.988Z,22.4
2017-09-27T13:12:26.673Z,22.6
2017-09-27T13:13:45.347Z,22.8
2017-09-27T13:15:04.008Z,24
2017-09-27T13:16:22.669Z,25.5
2017-09-27T13:17:41.354Z,28.9
2017-09-27T13:19:00.047Z,28.4
2017-09-27T13:20:18.762Z,26.9
2017-09-27T13:21:37.425Z,25.6
2017-09-27T13:22:56.084Z,24.9
2017-09-27T13:24:14.762Z,24.4
2017-09-27T13:25:33.434Z,23.8
2017-09-27T13:26:52.106Z,23.3
2017-09-27T13:28:10.762Z,22.9
2017-09-27T13:29:29.429Z,22.6
2017-09-27T13:30:48.101Z,22.9
2017-09-27T13:32:06.748Z,23.1
2017-09-27T13:33:25.449Z,23.5
2017-09-27T13:34:44.168Z,23.8
2017-09-27T13:36:02.859Z,23.9
2017-09-27T13:37:21.524Z,24.4
2017-09-27T13:38:40.189Z,25.2
2017-09-27T13:39:58.845Z,27.4
2017-09-27T13:41:17.558Z,31.1
2017-09-27T13:42:36.220Z,29.8
2017-09-27T13:43:54.917Z,28.3
2017-09-27T13:45:13.574Z,28.1
2017-09-27T13:46:32.245Z,29.1
2017-09-27T13:47:50.958Z,30
2017-09-27T13:49:09.636Z,29.2
2017-09-27T13:50:28.345Z,27.8
2017-09-27T13:51:47.015Z,27.1
2017-09-27T13:53:05.677Z,27.2
2017-09-27T13:54:24.341Z,26.5
2017-09-27T13:55:42.999Z,26.5
2017-09-27T13:57:01.718Z,26
2017-09-27T13:58:20.383Z,26
2017-09-27T13:59:39.044Z,25.5
2017-09-27T14:00:57.700Z,24.4
2017-09-27T14:02:16.373Z,23.7
2017-09-27T14:03:35.040Z,23.2
2017-09-27T14:04:53.752Z,23.3
2017-09-27T14:06:12.417Z,24.6
2017-09-27T14:07:31.129Z,26.4
2017-09-27T14:08:49.813Z,25.1
2017-09-27T14:10:08.476Z,23.9
2017-09-27T14:11:27.139Z,23.1
2017-09-27T14:12:45.825Z,22.6
2017-09-27T14:14:04.544Z,22.2
2017-09-27T14:15:23.207Z,21.9
2017-09-27T14:16:41.925Z,21.7
2017-09-27T14:18:00.607Z,21.5
2017-09-27T14:19:19.273Z,21.5
2017-09-27T14:20:37.954Z,21.5
2017-09-27T14:21:56.621Z,21.5
2017-09-27T14:23:15.336Z,21.5
2017-09-27T14:24:34.000Z,21.4
2017-09-27T14:25:52.718Z,21.4
2017-09-27T14:27:11.412Z,21.9
2017-09-27T14:28:30.148Z,22.6
2017-09-27T14:29:48.815Z,22.2
2017-09-27T14:31:07.496Z,21.9
2017-09-27T14:32:26.156Z,21.7
2017-09-27T14:33:44.872Z,21.6
2017-09-27T14:35:03.530Z,21.6
2017-09-27T14:36:22.187Z,21.6
2017-09-27T14:37:40.911Z,21.1
2017-09-27T14:38:59.622Z,21.2
2017-09-27T14:40:18.287Z,21.4
2017-09-27T14:41:36.991Z,21.3
2017-09-27T14:42:55.652Z,21.3
2017-09-27T14:44:14.383Z,21.1
2017-09-27T14:45:33.054Z,20.7
2017-09-27T14:46:51.719Z,20.6
2017-09-27T14:48:10.389Z,20.8
2017-09-27T14:49:29.067Z,20.8
2017-09-27T14:50:47.731Z,20.4
2017-09-27T14:52:06.395Z,20.2
2017-09-27T14:53:25.115Z,20
2017-09-27T14:54:43.782Z,20
2017-09-27T14:56:02.499Z,20
2017-09-27T14:57:21.163Z,20
2017-09-27T14:58:39.856Z,20.1
2017-09-27T14:59:58.538Z,20
2017-09-27T15:01:17.194Z,19.9
2017-09-27T15:02:35.868Z,19.7
2017-09-27T15:03:54.555Z,19.4
2017-09-27T15:05:13.225Z,19.3
2017-09-27T15:06:31.892Z,19.1
2017-09-27T15:07:50.551Z,19.1
2017-09-27T15:09:09.277Z,19.1
2017-09-27T15:10:27.975Z,19.1
2017-09-27T15:11:46.657Z,19.1
2017-09-27T15:13:05.351Z,19
2017-09-27T15:14:24.011Z,19.2
2017-09-27T15:15:42.684Z,19.3
2017-09-27T15:17:01.342Z,19.3
2017-09-27T15:18:20.035Z,19.2
2017-09-27T15:19:38.694Z,19.1
2017-09-27T15:20:57.370Z,19.1
2017-09-27T15:22:16.059Z,19.1
2017-09-27T15:23:34.765Z,18.9
2017-09-27T15:24:53.427Z,18.8
2017-09-27T15:26:12.104Z,18.9
2017-09-27T15:27:30.794Z,18.9
2017-09-27T15:28:49.526Z,18.8
2017-09-27T15:30:08.189Z,18.6
2017-09-27T15:31:26.863Z,18.4
2017-09-27T15:32:45.576Z,18.4
2017-09-27T15:34:04.257Z,18.4
2017-09-27T15:35:22.958Z,18.3
2017-09-27T15:36:41.622Z,18.2
2017-09-27T15:38:00.286Z,18.1
2017-09-27T15:39:18.952Z,17.9
2017-09-27T15:40:37.670Z,17.8
2017-09-27T15:41:56.349Z,17.8
2017-09-27T15:43:15.014Z,17.7
2017-09-27T15:44:33.675Z,17.7
2017-09-27T15:45:52.328Z,17.6
2017-09-27T15:47:10.990Z,17.7
2017-09-27T15:48:29.683Z,17.7
2017-09-27T15:49:48.353Z,17.8
2017-09-27T15:51:07.064Z,17.7
2017-09-27T15:52:25.782Z,17.7
2017-09-27T15:53:44.462Z,17.5
2017-09-27T15:55:03.178Z,17.6
2017-09-27T15:56:21.840Z,17.5
2017-09-27T15:57:40.527Z,17.4
2017-09-27T15:58:59.212Z,17.3
2017-09-27T16:00:17.876Z,17.2
2017-09-27T16:01:36.540Z,17.1
2017-09-27T16:02:55.208Z,16.9
2017-09-27T16:04:13.865Z,16.8
2017-09-27T16:05:32.537Z,16.8
2017-09-27T16:06:51.203Z,16.7
2017-09-27T16:08:09.925Z,16.8
2017-09-27T16:09:28.587Z,16.8
2017-09-27T16:10:47.275Z,16.7
2017-09-27T16:12:05.934Z,16.6
2017-09-27T16:13:24.611Z,16.7
2017-09-27T16:14:43.273Z,16.8
2017-09-27T16:16:01.930Z,16.7
2017-09-27T16:17:20.649Z,16.7
2017-09-27T16:18:39.351Z,16.6
2017-09-27T16:19:58.025Z,16.5
2017-09-27T16:21:16.693Z,16.5
2017-09-27T16:22:35.372Z,16.5
2017-09-27T16:23:54.061Z,16.4
2017-09-27T16:25:12.763Z,16.3
2017-09-27T16:26:31.426Z,16.2
2017-09-27T16:27:50.094Z,16.2
2017-09-27T16:29:08.813Z,16.2
2017-09-27T16:30:27.536Z,16.2
2017-09-27T16:31:46.194Z,16.2
2017-09-27T16:33:04.881Z,16.2
2017-09-27T16:34:23.555Z,16.1
2017-09-27T16:35:42.214Z,16.1
2017-09-27T16:37:00.893Z,16.1
2017-09-27T16:38:19.555Z,16.1
2017-09-27T16:39:38.256Z,16.1
2017-09-27T16:40:56.907Z,16
2017-09-27T16:42:15.566Z,15.9
2017-09-27T16:43:34.255Z,15.9
2017-09-27T16:44:52.926Z,15.7
2017-09-27T16:46:11.632Z,15.6
2017-09-27T16:47:30.291Z,15.5
2017-09-27T16:48:49.033Z,15.5
2017-09-27T16:50:07.737Z,15.5
2017-09-27T16:51:26.429Z,15.4
2017-09-27T16:52:45.086Z,15.4
2017-09-27T16:54:03.752Z,15.4
2017-09-27T16:55:22.491Z,15.3
2017-09-27T16:56:41.155Z,15.2
2017-09-27T16:57:59.820Z,15.2
2017-09-27T16:59:18.484Z,15.1
2017-09-27T17:00:37.149Z,15.1
2017-09-27T17:01:55.853Z,15
2017-09-27T17:03:14.578Z,14.8
2017-09-27T17:04:33.245Z,14.8
2017-09-27T17:05:51.915Z,14.8
2017-09-27T17:07:10.585Z,14.8
2017-09-27T17:08:29.249Z,14.8
2017-09-27T17:09:47.955Z,14.9
2017-09-27T17:11:06.681Z,14.9
2017-09-27T17:12:25.339Z,14.8
2017-09-27T17:13:44.058Z,14.9
2017-09-27T17:15:02.716Z,14.9
2017-09-27T17:16:21.404Z,14.9
2017-09-27T17:17:40.083Z,14.9
2017-09-27T17:18:58.756Z,14.8
2017-09-27T17:20:17.468Z,14.8
2017-09-27T17:21:36.133Z,14.8
2017-09-27T17:22:54.824Z,14.7
2017-09-27T17:24:13.488Z,14.7
2017-09-27T17:25:32.150Z,14.8
2017-09-27T17:26:50.827Z,14.8
2017-09-27T17:28:09.486Z,14.8
2017-09-27T17:29:28.199Z,14.7
2017-09-27T17:30:46.857Z,14.7
2017-09-27T17:32:05.523Z,14.7
2017-09-27T17:33:24.184Z,14.6
2017-09-27T17:34:42.845Z,14.5
2017-09-27T17:36:01.507Z,14.5
2017-09-27T17:37:20.176Z,14.5
2017-09-27T17:38:38.856Z,14.5
2017-09-27T17:39:57.556Z,14.4
2017-09-27T17:41:16.217Z,14.4
2017-09-27T17:42:34.895Z,14.4
2017-09-27T17:43:53.564Z,14.4
2017-09-27T17:45:12.274Z,14.4